Colchester, United Kingdom
Current Conditions -  °F | °C
As of 7:50 AM on Friday 31 Oct 2014 (Local Time) from EGUW Reporting Station
Haze Haze  
Wind Chill: 13°   Ceiling: 25000
Heat Index: 13°   Visibility: 4mi
Dew Point: 12°   Wind: 8mph
Humidity: 94%   Direction: 180°S
Pressure: 30.06"   Gusts: NA
Location:  51.89°N, 0.9°E
Report Text: EGUW 310750Z 18007KT 7000 BR FEW080 BKN250 13/12 Q1018 WHT BECMG 9999 NSW BLU
Loading
Personal Weather Stations






























Interactive Weather Map
Tropical Storm Tracking
New forecast layout! Learn more

10-Day Weather Forecast

Advertisements
Track Severe Weather on mobile